createdAt,value
2023-01-30T00:03:43.027Z,95.95
2023-01-30T00:08:48.661Z,97.19
2023-01-30T00:13:53.103Z,97.79
2023-01-30T00:18:56.501Z,98.07
2023-01-30T00:24:01.169Z,98.79
2023-01-30T00:29:04.690Z,98.81
2023-01-30T00:34:08.098Z,97.72
2023-01-30T00:39:12.776Z,98.80
2023-01-30T00:44:33.790Z,98.11
2023-01-30T00:49:38.325Z,97.98
2023-01-30T00:54:43.121Z,98.66
2023-01-30T00:59:46.379Z,98.96
2023-01-30T01:04:49.705Z,99.06
2023-01-30T01:09:54.610Z,99.14
2023-01-30T01:14:58.708Z,98.93
2023-01-30T01:20:02.147Z,98.88
2023-01-30T01:25:09.130Z,99.18
2023-01-30T01:30:13.865Z,98.58
2023-01-30T01:35:17.476Z,98.78
2023-01-30T01:40:40.421Z,99.28
2023-01-30T01:45:45.113Z,98.25
2023-01-30T01:50:52.841Z,98.07
2023-01-30T01:55:59.731Z,97.93
2023-01-30T02:01:03.280Z,97.73
2023-01-30T02:06:08.556Z,97.07
2023-01-30T02:11:19.257Z,97.02
2023-01-30T02:16:22.766Z,96.80
2023-01-30T02:22:10.866Z,95.94
2023-01-30T02:27:31.736Z,95.44
2023-01-30T02:32:44.633Z,96.12
2023-01-30T02:37:50.970Z,95.96
2023-01-30T02:43:06.092Z,95.03
2023-01-30T02:48:15.371Z,95.92
2023-01-30T02:53:19.092Z,95.42
2023-01-30T02:58:25.595Z,95.77
2023-01-30T03:03:45.567Z,95.55
2023-01-30T03:09:03.857Z,95.98
2023-01-30T03:14:15.571Z,95.92
2023-01-30T03:19:21.005Z,95.56
2023-01-30T03:24:25.165Z,95.57
2023-01-30T03:29:28.471Z,95.61
2023-01-30T03:34:33.449Z,95.67
2023-01-30T03:39:37.111Z,96.34
2023-01-30T03:44:40.455Z,96.12
2023-01-30T03:49:45.589Z,96.29
2023-01-30T03:54:49.120Z,96.49
2023-01-30T03:59:52.387Z,96.56
2023-01-30T04:04:57.125Z,96.48
2023-01-30T04:10:00.659Z,97.27
2023-01-30T04:15:04.141Z,96.92
2023-01-30T04:20:10.828Z,96.86
2023-01-30T04:25:14.245Z,96.19
2023-01-30T04:30:18.165Z,95.87
2023-01-30T04:35:22.913Z,95.41
2023-01-30T04:40:26.273Z,95.34
2023-01-30T04:45:30.435Z,94.74
2023-01-30T04:50:35.332Z,94.58
2023-01-30T04:55:39.014Z,94.25
2023-01-30T05:00:42.459Z,94.58
2023-01-30T05:05:49.798Z,94.48
2023-01-30T05:10:53.526Z,93.26
2023-01-30T05:15:56.988Z,93.92
2023-01-30T05:21:07.237Z,93.45
2023-01-30T05:26:11.103Z,92.74
2023-01-30T05:31:15.689Z,93.17
2023-01-30T05:36:22.768Z,92.42
2023-01-30T05:41:26.258Z,93.13
2023-01-30T05:46:29.857Z,92.56
2023-01-30T05:51:35.286Z,92.50
2023-01-30T05:56:39.005Z,91.36
2023-01-30T06:01:42.401Z,92.07
2023-01-30T06:06:47.324Z,91.55
2023-01-30T06:11:53.224Z,90.86
2023-01-30T06:16:56.625Z,90.46
2023-01-30T06:22:03.143Z,90.16
2023-01-30T06:27:06.575Z,88.84
2023-01-30T06:32:10.840Z,88.62
2023-01-30T06:37:15.590Z,87.78
2023-01-30T06:42:18.968Z,88.39
2023-01-30T06:47:23.987Z,87.60
2023-01-30T06:52:28.727Z,86.87
2023-01-30T06:57:32.016Z,87.32
2023-01-30T07:02:35.850Z,86.71
2023-01-30T07:07:41.368Z,87.26
2023-01-30T07:12:46.131Z,87.74
2023-01-30T07:17:49.487Z,87.64
2023-01-30T07:22:55.675Z,88.59
2023-01-30T07:28:01.163Z,88.76
2023-01-30T07:33:06.328Z,89.63
2023-01-30T07:38:11.076Z,89.93
2023-01-30T07:43:15.202Z,88.76
2023-01-30T07:48:20.705Z,89.22
2023-01-30T07:53:25.522Z,88.54
2023-01-30T07:58:30.016Z,89.44
2023-01-30T08:03:34.147Z,89.57
2023-01-30T08:08:38.978Z,89.53
2023-01-30T08:13:42.558Z,88.35
2023-01-30T08:18:45.903Z,87.97
2023-01-30T08:23:51.088Z,86.92
2023-01-30T08:28:56.065Z,86.38
2023-01-30T08:33:59.383Z,85.00
2023-01-30T08:39:04.192Z,85.21
2023-01-30T08:44:07.836Z,84.61
2023-01-30T08:49:12.341Z,84.41
2023-01-30T08:54:17.066Z,83.17
2023-01-30T08:59:20.492Z,82.85
2023-01-30T09:04:25.159Z,82.29
2023-01-30T09:09:31.835Z,82.16
2023-01-30T09:14:35.278Z,82.04
2023-01-30T09:19:38.585Z,81.66
2023-01-30T09:24:43.549Z,80.99
2023-01-30T09:29:46.831Z,80.17
2023-01-30T09:34:50.135Z,80.03
2023-01-30T09:39:54.910Z,80.38
2023-01-30T09:45:24.386Z,80.48
2023-01-30T09:50:44.873Z,80.19
2023-01-30T09:55:50.636Z,80.49
2023-01-30T10:01:00.335Z,80.41
2023-01-30T10:06:08.149Z,80.56
2023-01-30T10:11:26.018Z,81.32
2023-01-30T10:16:37.010Z,81.81
2023-01-30T10:21:51.759Z,81.95
2023-01-30T10:26:58.477Z,80.98
2023-01-30T10:32:08.435Z,79.85
2023-01-30T10:37:16.632Z,80.23
2023-01-30T10:42:28.233Z,80.23
2023-01-30T10:47:47.596Z,81.15
2023-01-30T10:53:01.695Z,81.29
2023-01-30T10:58:16.760Z,81.49
2023-01-30T11:03:25.807Z,81.51
2023-01-30T11:08:31.154Z,82.17
2023-01-30T11:13:37.708Z,81.42
2023-01-30T11:24:18.374Z,82.01
2023-01-30T11:29:29.702Z,82.71
2023-01-30T11:34:33.290Z,82.51
2023-01-30T11:39:37.020Z,82.58
2023-01-30T11:44:43.370Z,82.10
2023-01-30T11:50:03.678Z,81.67
2023-01-30T11:55:17.794Z,80.40
2023-01-30T12:00:25.189Z,80.09
2023-01-30T12:05:35.776Z,80.53
2023-01-30T12:10:42.655Z,79.55
2023-01-30T12:15:53.033Z,79.86
2023-01-30T12:21:01.320Z,80.43
2023-01-30T12:26:12.062Z,79.74
2023-01-30T12:31:23.690Z,80.71
2023-01-30T12:36:39.370Z,80.02
2023-01-30T12:41:58.099Z,80.28
2023-01-30T12:47:22.277Z,80.34
2023-01-30T12:52:46.587Z,80.93
2023-01-30T12:57:55.464Z,81.16
2023-01-30T13:03:24.005Z,81.11
2023-01-30T13:08:58.067Z,81.27
2023-01-30T13:14:05.078Z,81.33
2023-01-30T13:19:21.126Z,81.25
2023-01-30T13:24:41.129Z,81.68
2023-01-30T13:29:47.122Z,81.95
2023-01-30T13:34:56.324Z,81.53
2023-01-30T13:40:04.013Z,81.65
2023-01-30T13:45:10.316Z,81.96
2023-01-30T13:50:43.057Z,81.97
2023-01-30T13:55:53.673Z,81.31
2023-01-30T14:00:58.174Z,81.59
2023-01-30T14:06:22.632Z,80.79
2023-01-30T14:11:48.773Z,81.01
2023-01-30T14:16:55.067Z,81.30
2023-01-30T14:22:03.176Z,81.07
2023-01-30T14:27:24.872Z,80.54
2023-01-30T14:32:54.562Z,80.22
2023-01-30T14:38:14.645Z,79.20
2023-01-30T14:43:53.318Z,79.67
2023-01-30T14:49:04.543Z,78.89
2023-01-30T14:54:27.468Z,78.47
2023-01-30T15:00:11.495Z,78.00
2023-01-30T15:05:19.621Z,77.38
2023-01-30T15:10:40.230Z,77.30
2023-01-30T15:15:53.913Z,77.12
2023-01-30T15:21:18.301Z,77.40
2023-01-30T15:26:32.197Z,76.15
2023-01-30T15:31:35.692Z,76.07
2023-01-30T15:36:39.020Z,76.73
2023-01-30T15:41:44.221Z,75.91
2023-01-30T15:46:57.048Z,76.14
2023-01-30T15:52:04.063Z,75.76
2023-01-30T15:57:18.122Z,75.52
2023-01-30T16:02:30.349Z,75.35
2023-01-30T16:07:35.035Z,74.55
2023-01-30T16:12:41.135Z,74.29
2023-01-30T16:17:47.171Z,74.86
2023-01-30T16:22:51.021Z,73.95
2023-01-30T16:27:55.953Z,74.30
2023-01-30T16:32:59.524Z,74.55
2023-01-30T16:38:05.600Z,75.41
2023-01-30T16:43:21.888Z,74.51
2023-01-30T16:48:33.231Z,74.25
2023-01-30T16:53:37.337Z,74.65
2023-01-30T16:58:45.890Z,74.06
2023-01-30T17:04:03.006Z,73.40
2023-01-30T17:09:09.389Z,73.46
2023-01-30T17:14:23.107Z,73.44
2023-01-30T17:19:26.444Z,73.20
2023-01-30T17:24:30.166Z,74.05
2023-01-30T17:29:43.657Z,73.49
2023-01-30T17:34:47.658Z,73.64
2023-01-30T17:39:51.124Z,73.63
2023-01-30T17:44:56.035Z,73.38
2023-01-30T17:49:59.480Z,73.30
2023-01-30T17:55:03.094Z,73.51
2023-01-30T18:00:09.565Z,73.88
2023-01-30T18:05:13.559Z,73.42
2023-01-30T18:10:20.308Z,73.40
2023-01-30T18:15:25.812Z,73.42
2023-01-30T18:20:29.063Z,73.05
2023-01-30T18:25:32.376Z,73.37
2023-01-30T18:30:37.533Z,73.96
2023-01-30T18:35:40.957Z,73.82
2023-01-30T18:40:44.465Z,74.31
2023-01-30T18:45:49.506Z,73.88
2023-01-30T18:50:52.856Z,74.13
2023-01-30T18:55:56.323Z,74.19
2023-01-30T19:01:01.767Z,74.37
2023-01-30T19:06:05.446Z,74.56
2023-01-30T19:11:23.826Z,74.93
2023-01-30T19:16:30.758Z,74.82
2023-01-30T19:21:34.966Z,74.81
2023-01-30T19:26:38.259Z,74.36
2023-01-30T19:31:43.068Z,74.40
2023-01-30T19:36:46.438Z,75.17
2023-01-30T19:41:49.881Z,75.57
2023-01-30T19:46:55.823Z,75.17
2023-01-30T19:52:02.178Z,75.70
2023-01-30T19:57:05.851Z,75.17
2023-01-30T20:02:11.806Z,75.86
2023-01-30T20:07:15.273Z,76.68
2023-01-30T20:12:18.712Z,79.23
2023-01-30T20:17:24.006Z,82.49
2023-01-30T20:22:27.365Z,83.95
2023-01-30T20:27:30.903Z,85.49
2023-01-30T20:32:36.748Z,87.04
2023-01-30T20:37:40.060Z,86.73
2023-01-30T20:42:43.603Z,87.89
2023-01-30T20:47:48.383Z,88.41
2023-01-30T20:52:52.688Z,88.93
2023-01-30T20:57:56.097Z,89.88
2023-01-30T21:03:00.904Z,90.47
2023-01-30T21:08:04.869Z,90.01
2023-01-30T21:13:08.439Z,90.75
2023-01-30T21:18:13.535Z,91.75
2023-01-30T21:23:16.804Z,93.06
2023-01-30T21:28:20.259Z,93.47
2023-01-30T21:33:25.053Z,93.26
2023-01-30T21:38:45.937Z,93.34
2023-01-30T21:43:49.627Z,92.72
2023-01-30T21:48:54.757Z,92.14
2023-01-30T21:53:58.456Z,91.52
2023-01-30T21:59:03.187Z,92.15
2023-01-30T22:04:10.147Z,92.18
2023-01-30T22:09:15.401Z,92.91
2023-01-30T22:14:18.772Z,93.22
2023-01-30T22:19:23.670Z,94.76
2023-01-30T22:24:26.963Z,96.01
2023-01-30T22:29:30.399Z,96.00
2023-01-30T22:34:36.117Z,96.85
2023-01-30T22:39:40.461Z,97.03
2023-01-30T22:44:44.089Z,96.74
2023-01-30T22:49:49.225Z,96.57
2023-01-30T22:54:52.686Z,97.14
2023-01-30T22:59:55.920Z,97.49
2023-01-30T23:05:00.708Z,96.11
2023-01-30T23:10:04.190Z,95.58
2023-01-30T23:15:09.026Z,95.96
2023-01-30T23:20:14.800Z,97.54
2023-01-30T23:25:18.447Z,96.67
2023-01-30T23:30:22.093Z,97.62
2023-01-30T23:35:27.152Z,97.09
2023-01-30T23:40:30.544Z,97.49
2023-01-30T23:45:35.239Z,96.62
2023-01-30T23:50:42.335Z,96.48
2023-01-30T23:55:52.467Z,96.74
